Time;durP1;ratioP1;P1;durP2;ratioP2;P2;SDS_P1;SDS_P2;PMS_P1;PMS_P2;Temp;Humidity;BMP_temperature;BMP_pressure;BME280_temperature;BME280_humidity;BME280_pressure;Samples;Min_cycle;Max_cycle;Signal;HPM_P1;HPM_P2
2023/09/01 00:02:13;;;;;;;3.03;1.92;;;16.60;99.90;;;;;;5014634;28;20064;-50
2023/09/01 00:04:51;;;;;;;2.83;1.95;;;16.60;99.90;;;;;;5014180;28;20120;-51
2023/09/01 00:07:18;;;;;;;2.83;2.08;;;16.60;99.90;;;;;;5013089;28;20045;-48
2023/09/01 00:09:44;;;;;;;3.83;2.33;;;16.70;99.90;;;;;;5014159;28;20069;-47
2023/09/01 00:12:11;;;;;;;3.55;2.20;;;16.70;99.90;;;;;;5014058;28;20049;-45
2023/09/01 00:14:38;;;;;;;3.42;2.20;;;16.70;99.90;;;;;;5020909;28;20400;-47
2023/09/01 00:17:05;;;;;;;2.97;2.22;;;16.70;99.90;;;;;;5033470;28;20042;-50
2023/09/01 00:19:32;;;;;;;3.50;2.25;;;16.70;99.90;;;;;;5034232;28;20045;-51
2023/09/01 00:21:58;;;;;;;3.83;2.30;;;16.70;99.90;;;;;;5033633;28;20136;-47
2023/09/01 00:24:25;;;;;;;2.80;2.10;;;16.80;99.90;;;;;;5033679;28;20045;-48
2023/09/01 00:26:52;;;;;;;4.07;2.20;;;16.80;99.90;;;;;;5033941;28;20053;-50
2023/09/01 00:29:19;;;;;;;3.28;2.42;;;16.80;99.90;;;;;;5033884;28;20056;-49
2023/09/01 00:31:45;;;;;;;3.10;2.20;;;16.80;99.90;;;;;;5031935;28;20389;-51
2023/09/01 00:34:12;;;;;;;3.50;2.38;;;16.80;99.90;;;;;;5032338;28;20056;-50
2023/09/01 00:36:39;;;;;;;2.80;2.05;;;16.80;99.90;;;;;;5032040;28;20388;-49
2023/09/01 00:39:06;;;;;;;3.65;2.15;;;16.80;99.90;;;;;;5033651;28;20096;-52
2023/09/01 00:41:33;;;;;;;4.20;2.30;;;16.80;99.90;;;;;;5032526;28;20041;-48
2023/09/01 00:43:59;;;;;;;3.83;2.22;;;16.80;99.90;;;;;;5032280;28;20516;-53
2023/09/01 00:46:26;;;;;;;3.33;2.13;;;16.90;99.90;;;;;;5016043;28;20092;-50
2023/09/01 00:48:53;;;;;;;2.63;2.13;;;16.80;99.90;;;;;;5033339;28;20128;-48
2023/09/01 00:51:20;;;;;;;3.13;1.92;;;16.80;99.90;;;;;;5032072;28;20384;-48
2023/09/01 00:53:47;;;;;;;2.97;2.35;;;16.80;99.90;;;;;;5033162;28;20076;-51
2023/09/01 00:56:14;;;;;;;2.92;2.10;;;16.80;99.90;;;;;;5033180;28;20124;-49
2023/09/01 00:58:40;;;;;;;2.75;1.77;;;16.80;99.90;;;;;;5031983;28;20041;-46
2023/09/01 01:01:07;;;;;;;2.97;2.08;;;16.80;99.90;;;;;;5031950;28;20464;-49
2023/09/01 01:03:34;;;;;;;2.75;2.05;;;16.80;99.90;;;;;;5033475;28;20048;-48
2023/09/01 01:06:07;;;;;;;3.65;2.00;;;16.80;99.90;;;;;;5033225;28;20076;-48
2023/09/01 01:08:34;;;;;;;3.42;2.20;;;16.90;99.90;;;;;;5032840;28;20054;-51
2023/09/01 01:11:01;;;;;;;3.53;2.30;;;16.90;99.90;;;;;;5031918;28;20046;-48
2023/09/01 01:13:28;;;;;;;3.60;2.08;;;16.80;99.90;;;;;;5032133;28;20045;-47
2023/09/01 01:15:55;;;;;;;3.08;2.00;;;16.80;99.90;;;;;;5033111;28;20038;-50
2023/09/01 01:18:22;;;;;;;4.82;2.42;;;16.80;99.90;;;;;;5032010;28;20045;-48
2023/09/01 01:20:49;;;;;;;3.30;2.40;;;16.80;99.90;;;;;;5037515;28;20103;-48
2023/09/01 01:23:16;;;;;;;3.58;2.28;;;16.80;99.90;;;;;;5037157;28;20053;-49
2023/09/01 01:25:43;;;;;;;4.60;2.50;;;16.80;99.90;;;;;;5035779;28;20080;-48
2023/09/01 01:28:10;;;;;;;5.32;2.60;;;16.80;99.90;;;;;;5035256;28;20059;-48
2023/09/01 01:30:37;;;;;;;5.82;2.60;;;16.90;99.90;;;;;;5036895;28;20048;-47
2023/09/01 01:33:04;;;;;;;4.25;2.33;;;16.80;99.90;;;;;;5036570;28;20060;-47
2023/09/01 01:35:31;;;;;;;3.72;2.63;;;16.90;99.90;;;;;;5036668;28;20041;-47
2023/09/01 01:37:58;;;;;;;6.25;2.90;;;16.80;99.90;;;;;;5036311;28;20033;-46
2023/09/01 01:40:25;;;;;;;4.50;2.78;;;16.80;99.90;;;;;;5036439;28;20033;-53
2023/09/01 01:42:52;;;;;;;5.50;2.65;;;16.80;99.90;;;;;;5036442;28;20041;-52
2023/09/01 01:45:20;;;;;;;3.47;2.45;;;16.90;99.90;;;;;;5036302;28;20380;-49
2023/09/01 01:47:47;;;;;;;4.32;2.53;;;16.80;99.90;;;;;;5036449;28;20057;-55
2023/09/01 01:50:14;;;;;;;4.85;2.90;;;16.80;99.90;;;;;;5035582;28;20045;-52
2023/09/01 01:52:41;;;;;;;4.68;3.00;;;16.80;99.90;;;;;;5036656;28;20042;-51
2023/09/01 01:55:07;;;;;;;5.20;3.50;;;16.80;99.90;;;;;;5036279;28;20079;-48
2023/09/01 01:57:36;;;;;;;5.72;3.80;;;16.80;99.90;;;;;;5035096;28;20044;-50
2023/09/01 02:00:03;;;;;;;6.72;4.03;;;16.80;99.90;;;;;;5019086;28;20069;-52
2023/09/01 02:02:38;;;;;;;5.78;4.35;;;16.80;99.90;;;;;;5036431;28;20103;-53
2023/09/01 02:05:06;;;;;;;7.47;5.10;;;16.70;99.90;;;;;;5035273;28;20103;-52
2023/09/01 02:07:33;;;;;;;8.20;4.70;;;16.80;99.90;;;;;;5035853;28;20053;-51
2023/09/01 02:10:00;;;;;;;7.18;4.78;;;16.80;99.90;;;;;;5036203;28;20037;-51
2023/09/01 02:12:27;;;;;;;7.57;4.82;;;16.70;99.90;;;;;;5034676;28;20473;-54
2023/09/01 02:14:53;;;;;;;6.43;4.60;;;16.80;99.90;;;;;;5036225;28;20037;-54
2023/09/01 02:17:20;;;;;;;8.57;5.13;;;16.80;99.90;;;;;;5034410;28;20045;-50
2023/09/01 02:19:47;;;;;;;7.32;4.75;;;16.80;99.90;;;;;;5018015;28;20045;-47
2023/09/01 02:22:14;;;;;;;8.13;5.88;;;16.80;99.90;;;;;;5034320;28;20503;-52
2023/09/01 02:24:40;;;;;;;7.80;5.57;;;16.80;99.90;;;;;;5036007;28;20053;-48
2023/09/01 02:27:08;;;;;;;8.93;5.60;;;16.80;99.90;;;;;;5034151;28;20065;-53
2023/09/01 02:29:34;;;;;;;7.15;5.55;;;16.90;99.90;;;;;;5035368;28;20060;-52
2023/09/01 02:32:02;;;;;;;5.72;4.38;;;16.90;99.90;;;;;;5035519;28;20041;-51
2023/09/01 02:34:29;;;;;;;7.57;4.32;;;16.90;99.90;;;;;;5034125;28;20069;-54
2023/09/01 02:36:56;;;;;;;5.32;4.05;;;16.90;99.90;;;;;;5017551;28;20119;-54
2023/09/01 02:39:23;;;;;;;6.40;4.38;;;17.00;99.90;;;;;;5035548;28;20392;-52
2023/09/01 02:41:50;;;;;;;6.88;4.60;;;17.00;99.90;;;;;;5035671;28;20053;-49
2023/09/01 02:44:16;;;;;;;7.25;4.30;;;17.00;99.90;;;;;;5034272;28;20068;-52
2023/09/01 02:46:43;;;;;;;8.38;5.10;;;17.00;99.90;;;;;;5035459;28;20100;-50
2023/09/01 02:49:10;;;;;;;8.93;4.55;;;17.00;99.90;;;;;;5034176;28;20534;-51
2023/09/01 02:51:37;;;;;;;8.50;4.22;;;17.00;99.90;;;;;;5034775;28;20056;-49
2023/09/01 02:54:04;;;;;;;7.50;4.60;;;17.00;99.90;;;;;;5033939;28;20061;-53
2023/09/01 02:56:31;;;;;;;5.78;4.38;;;17.00;99.90;;;;;;5033815;28;20053;-51
2023/09/01 02:58:58;;;;;;;8.98;4.80;;;17.00;99.90;;;;;;5034158;28;20043;-48
2023/09/01 03:01:25;;;;;;;6.50;4.20;;;17.00;99.90;;;;;;5033581;28;20041;-46
2023/09/01 03:03:52;;;;;;;4.90;3.92;;;16.90;99.90;;;;;;5033792;28;20058;-48
2023/09/01 03:06:19;;;;;;;6.72;4.22;;;17.00;99.90;;;;;;5033504;28;20060;-50
2023/09/01 03:08:46;;;;;;;8.32;4.63;;;16.90;99.90;;;;;;5035089;28;20045;-50
2023/09/01 03:11:13;;;;;;;7.65;4.32;;;16.90;99.90;;;;;;5035094;28;20045;-54
2023/09/01 03:13:40;;;;;;;6.45;4.43;;;16.90;99.90;;;;;;5033912;28;20064;-49
2023/09/01 03:16:07;;;;;;;5.20;4.25;;;16.90;99.90;;;;;;5034842;28;20052;-48
2023/09/01 03:18:34;;;;;;;6.25;3.95;;;16.90;99.90;;;;;;5034728;28;20033;-49
2023/09/01 03:21:01;;;;;;;9.77;4.70;;;16.90;99.90;;;;;;5033274;28;20045;-50
2023/09/01 03:23:28;;;;;;;5.47;4.53;;;16.90;99.90;;;;;;5033816;28;20054;-46
2023/09/01 03:25:55;;;;;;;6.38;4.60;;;16.90;99.90;;;;;;5033136;28;20400;-49
2023/09/01 03:28:24;;;;;;;7.03;3.97;;;16.90;99.90;;;;;;5033457;28;20073;-49
2023/09/01 03:30:51;;;;;;;8.07;4.30;;;16.90;99.90;;;;;;5033576;28;20479;-48
2023/09/01 03:33:21;;;;;;;5.50;3.60;;;16.90;99.90;;;;;;5033082;28;20111;-50
2023/09/01 03:35:49;;;;;;;5.28;3.40;;;16.90;99.90;;;;;;5033037;28;20049;-51
2023/09/01 03:38:16;;;;;;;5.82;3.22;;;16.90;99.90;;;;;;5033371;28;20408;-52
2023/09/01 03:40:43;;;;;;;5.40;3.17;;;16.90;99.90;;;;;;5033496;28;20412;-51
2023/09/01 03:43:10;;;;;;;6.78;3.60;;;16.90;99.90;;;;;;5032464;28;20052;-52
2023/09/01 03:45:37;;;;;;;4.93;3.33;;;16.90;99.90;;;;;;5034425;28;20050;-50
2023/09/01 03:48:04;;;;;;;5.90;3.20;;;16.90;99.90;;;;;;5032519;28;20057;-51
2023/09/01 03:50:31;;;;;;;5.28;3.17;;;16.90;99.90;;;;;;5033449;28;20536;-46
2023/09/01 03:52:58;;;;;;;4.95;2.78;;;16.90;99.90;;;;;;5032410;28;20046;-49
2023/09/01 03:55:25;;;;;;;4.32;2.70;;;16.90;99.90;;;;;;5034054;28;20042;-47
2023/09/01 03:57:52;;;;;;;4.50;2.35;;;16.90;99.90;;;;;;5033838;28;20479;-52
2023/09/01 04:00:20;;;;;;;3.72;2.50;;;16.90;99.90;;;;;;5032647;28;20057;-51
2023/09/01 04:02:50;;;;;;;3.65;2.30;;;17.00;99.90;;;;;;5034352;28;20045;-49
2023/09/01 04:05:17;;;;;;;4.03;2.47;;;16.90;99.90;;;;;;5033793;28;20056;-53
2023/09/01 04:07:44;;;;;;;2.72;2.33;;;17.00;99.90;;;;;;5032085;28;20091;-50
2023/09/01 04:10:11;;;;;;;4.65;2.70;;;16.90;99.90;;;;;;5032285;28;20072;-49
2023/09/01 04:12:38;;;;;;;3.38;2.05;;;17.00;99.90;;;;;;5032546;28;20041;-50
2023/09/01 04:15:06;;;;;;;3.35;2.10;;;17.00;99.90;;;;;;5032358;28;20374;-50
2023/09/01 04:17:34;;;;;;;5.30;2.33;;;16.90;99.90;;;;;;5032974;28;20072;-47
2023/09/01 04:20:02;;;;;;;3.30;2.20;;;16.90;99.90;;;;;;5032612;28;20158;-47
2023/09/01 04:22:29;;;;;;;4.22;2.42;;;16.90;99.90;;;;;;5033786;28;20033;-47
2023/09/01 04:24:56;;;;;;;4.93;2.80;;;16.90;99.90;;;;;;5031886;28;20084;-47
2023/09/01 04:27:23;;;;;;;3.50;2.10;;;17.00;99.90;;;;;;5031673;28;20149;-45
2023/09/01 04:29:50;;;;;;;3.50;2.08;;;17.00;99.90;;;;;;5033227;28;20037;-47
2023/09/01 04:32:35;;;;;;;3.58;2.40;;;17.00;99.90;;;;;;5032117;28;20050;-52
2023/09/01 04:35:02;;;;;;;2.67;1.80;;;17.00;99.90;;;;;;5031959;28;20091;-46
2023/09/01 04:37:29;;;;;;;3.22;1.80;;;17.00;99.90;;;;;;5033492;28;20049;-50
2023/09/01 04:39:57;;;;;;;2.83;1.85;;;17.00;99.90;;;;;;5032358;28;20447;-51
2023/09/01 04:42:23;;;;;;;3.42;2.08;;;17.00;99.90;;;;;;5031883;28;20082;-52
2023/09/01 04:44:50;;;;;;;2.75;1.80;;;17.00;99.90;;;;;;5032271;28;20053;-52
2023/09/01 04:47:17;;;;;;;3.50;1.70;;;17.10;99.90;;;;;;5031463;28;20059;-45
2023/09/01 04:49:44;;;;;;;5.22;1.80;;;17.10;99.90;;;;;;5031185;28;20493;-48
2023/09/01 04:52:11;;;;;;;3.35;1.92;;;17.10;99.90;;;;;;5032015;28;20104;-53
2023/09/01 04:54:37;;;;;;;3.83;1.73;;;17.10;99.90;;;;;;5032863;28;20128;-52
2023/09/01 04:57:04;;;;;;;3.17;1.77;;;17.10;99.90;;;;;;5031812;28;20049;-52
2023/09/01 04:59:32;;;;;;;2.35;1.60;;;17.10;99.90;;;;;;5032102;28;20107;-53
2023/09/01 05:01:59;;;;;;;3.03;1.55;;;17.10;99.90;;;;;;5031686;28;20132;-48
2023/09/01 05:04:26;;;;;;;2.05;1.40;;;17.10;99.90;;;;;;5032764;28;20382;-51
2023/09/01 05:06:53;;;;;;;3.22;1.90;;;17.10;99.90;;;;;;5031301;28;20041;-51
2023/09/01 05:09:21;;;;;;;3.13;1.50;;;17.10;99.90;;;;;;5031619;28;20441;-51
2023/09/01 05:11:48;;;;;;;2.10;1.40;;;17.10;99.90;;;;;;5033107;28;20049;-51
2023/09/01 05:14:16;;;;;;;2.45;1.50;;;17.10;99.90;;;;;;5031746;28;20065;-51
2023/09/01 05:16:43;;;;;;;2.00;1.48;;;17.10;99.90;;;;;;5031615;28;20052;-52
2023/09/01 05:19:10;;;;;;;2.25;1.50;;;17.10;99.90;;;;;;5031878;28;20048;-52
2023/09/01 05:21:37;;;;;;;2.72;1.23;;;17.10;99.90;;;;;;5031464;28;20052;-49
2023/09/01 05:24:04;;;;;;;2.00;1.40;;;17.10;99.90;;;;;;5032852;28;20096;-51
2023/09/01 05:26:31;;;;;;;2.72;1.40;;;17.10;99.90;;;;;;5031375;28;20041;-48
2023/09/01 05:28:58;;;;;;;3.03;1.70;;;17.10;99.90;;;;;;5031674;28;20135;-50
2023/09/01 05:31:25;;;;;;;3.53;1.52;;;17.10;99.90;;;;;;5033302;28;20041;-54
2023/09/01 05:33:52;;;;;;;4.05;1.33;;;17.10;99.90;;;;;;5031741;28;20046;-51
2023/09/01 05:36:19;;;;;;;2.28;1.55;;;17.20;99.90;;;;;;5032609;28;20408;-56
2023/09/01 05:38:45;;;;;;;2.92;1.50;;;17.20;99.90;;;;;;5031630;28;20050;-53
2023/09/01 05:41:14;;;;;;;2.08;1.48;;;17.20;99.90;;;;;;5030957;28;20562;-52
2023/09/01 05:43:41;;;;;;;3.78;1.65;;;17.20;99.90;;;;;;5031374;28;20511;-49
2023/09/01 05:46:08;;;;;;;4.07;1.55;;;17.20;99.90;;;;;;5031682;28;20077;-49
2023/09/01 05:48:36;;;;;;;2.50;1.58;;;17.20;99.90;;;;;;5030949;28;20447;-47
2023/09/01 05:51:03;;;;;;;2.42;1.58;;;17.20;99.90;;;;;;5031287;28;20400;-47
2023/09/01 05:53:30;;;;;;;2.55;1.60;;;17.20;99.90;;;;;;5032987;28;20388;-48
2023/09/01 05:55:57;;;;;;;4.45;1.70;;;17.20;99.90;;;;;;5033024;28;20037;-50
2023/09/01 05:58:24;;;;;;;2.50;1.67;;;17.30;99.90;;;;;;5032577;28;20060;-48
2023/09/01 06:00:50;;;;;;;2.88;1.73;;;17.30;99.90;;;;;;5031041;28;20037;-47
2023/09/01 06:03:17;;;;;;;2.60;1.88;;;17.30;99.90;;;;;;5032694;28;20038;-52
2023/09/01 06:05:44;;;;;;;2.83;1.83;;;17.30;99.90;;;;;;5035582;28;20053;-51
2023/09/01 06:08:11;;;;;;;3.08;1.92;;;17.40;99.90;;;;;;5036115;28;20050;-50
2023/09/01 06:10:38;;;;;;;3.55;1.70;;;17.40;99.90;;;;;;5036445;28;20072;-53
2023/09/01 06:13:05;;;;;;;3.10;1.92;;;17.40;99.90;;;;;;5036372;28;20049;-54
2023/09/01 06:15:32;;;;;;;3.13;1.55;;;17.40;99.90;;;;;;5036368;28;20052;-52
2023/09/01 06:17:58;;;;;;;2.95;1.70;;;17.40;99.90;;;;;;5035704;28;20046;-51
2023/09/01 06:20:26;;;;;;;3.08;1.70;;;17.50;99.90;;;;;;5036119;28;20381;-52
2023/09/01 06:22:54;;;;;;;2.22;1.30;;;17.50;99.90;;;;;;5035865;28;20175;-49
2023/09/01 06:25:21;;;;;;;2.28;1.20;;;17.50;99.90;;;;;;5036188;28;20037;-51
2023/09/01 06:27:48;;;;;;;1.85;1.30;;;17.50;99.90;;;;;;5035818;28;20072;-56
2023/09/01 06:30:15;;;;;;;3.92;1.70;;;17.50;99.90;;;;;;5036362;28;20532;-47
2023/09/01 06:32:41;;;;;;;2.47;1.30;;;17.50;99.90;;;;;;5035949;28;20072;-50
2023/09/01 06:35:08;;;;;;;3.20;1.73;;;17.50;99.90;;;;;;5034370;28;20489;-48
2023/09/01 06:37:35;;;;;;;2.83;1.90;;;17.50;99.90;;;;;;5035823;28;20116;-49
2023/09/01 06:40:04;;;;;;;2.42;1.73;;;17.50;99.90;;;;;;5035389;28;20144;-53
2023/09/01 06:42:31;;;;;;;2.55;1.73;;;17.60;99.90;;;;;;5035877;28;20038;-52
2023/09/01 06:44:57;;;;;;;2.40;1.77;;;17.60;99.90;;;;;;5035250;28;20080;-56
2023/09/01 06:47:24;;;;;;;2.45;1.50;;;17.60;99.90;;;;;;5033796;28;20148;-54
2023/09/01 06:49:51;;;;;;;3.17;1.95;;;17.60;99.90;;;;;;5035584;28;20049;-51
2023/09/01 06:52:18;;;;;;;2.20;1.40;;;17.70;99.90;;;;;;5035283;28;20064;-51
2023/09/01 06:54:45;;;;;;;3.65;1.88;;;17.70;99.90;;;;;;5035580;28;20052;-48
2023/09/01 06:57:11;;;;;;;2.92;1.73;;;17.70;99.90;;;;;;5035144;28;20034;-51
2023/09/01 06:59:38;;;;;;;2.25;1.55;;;17.70;99.90;;;;;;5033829;28;20405;-51
2023/09/01 07:02:05;;;;;;;2.15;1.58;;;17.70;99.90;;;;;;5034938;28;20045;-49
2023/09/01 07:04:32;;;;;;;3.10;1.52;;;17.70;99.90;;;;;;5035285;28;20049;-50
2023/09/01 07:06:59;;;;;;;2.38;1.80;;;17.70;99.90;;;;;;5031941;28;20056;-51
2023/09/01 07:09:26;;;;;;;2.08;1.42;;;17.80;99.90;;;;;;5015248;28;20049;-46
2023/09/01 07:11:52;;;;;;;3.95;2.00;;;17.90;99.90;;;;;;5014973;28;20046;-47
2023/09/01 07:14:19;;;;;;;2.65;1.83;;;18.10;99.90;;;;;;5031874;28;20068;-46
2023/09/01 07:16:46;;;;;;;2.33;1.50;;;18.20;99.90;;;;;;5035096;28;20033;-46
2023/09/01 07:19:13;;;;;;;3.00;1.50;;;18.30;99.90;;;;;;5034902;28;20481;-49
2023/09/01 07:21:39;;;;;;;2.53;1.38;;;18.40;99.90;;;;;;5017003;28;20484;-51
2023/09/01 07:24:06;;;;;;;2.17;1.30;;;18.50;99.90;;;;;;5034889;28;20406;-53
2023/09/01 07:26:33;;;;;;;3.75;1.38;;;18.50;99.90;;;;;;5033353;28;20397;-50
2023/09/01 07:29:00;;;;;;;1.88;1.20;;;18.60;99.90;;;;;;5033644;28;20051;-51
2023/09/01 07:31:27;;;;;;;1.80;1.02;;;18.60;99.90;;;;;;5034167;28;20042;-55
2023/09/01 07:33:54;;;;;;;3.05;1.40;;;18.60;99.90;;;;;;5033672;28;20091;-52
2023/09/01 07:36:21;;;;;;;2.67;1.40;;;18.70;99.90;;;;;;5033943;28;20037;-56
2023/09/01 07:38:48;;;;;;;2.30;1.50;;;18.70;99.90;;;;;;5034762;28;20046;-54
2023/09/01 07:41:15;;;;;;;2.03;1.23;;;18.70;99.90;;;;;;5034075;28;20440;-50
2023/09/01 07:43:42;;;;;;;2.05;1.23;;;18.70;99.90;;;;;;5033312;28;20487;-54
2023/09/01 07:46:09;;;;;;;5.03;1.20;;;18.70;99.90;;;;;;5034509;28;20099;-53
2023/09/01 07:48:36;;;;;;;1.83;1.10;;;18.70;99.90;;;;;;5034129;28;20045;-50
2023/09/01 07:51:03;;;;;;;2.78;1.65;;;18.80;99.90;;;;;;5033316;28;20037;-55
2023/09/01 07:53:29;;;;;;;2.88;1.13;;;18.90;99.90;;;;;;5033654;28;20050;-55
2023/09/01 07:55:56;;;;;;;2.70;1.52;;;18.90;99.90;;;;;;5034311;28;20034;-51
2023/09/01 07:58:23;;;;;;;3.03;1.30;;;19.00;99.90;;;;;;5032339;28;20045;-54
2023/09/01 08:00:50;;;;;;;2.53;1.90;;;19.10;99.90;;;;;;5034030;28;20043;-51
2023/09/01 08:03:17;;;;;;;3.92;1.17;;;19.20;99.90;;;;;;5033655;28;20049;-49
2023/09/01 08:05:44;;;;;;;4.00;1.00;;;19.30;99.90;;;;;;5032831;28;20037;-52
2023/09/01 08:08:13;;;;;;;2.03;1.00;;;19.40;99.90;;;;;;5033203;28;20476;-51
2023/09/01 08:10:40;;;;;;;3.60;1.17;;;19.50;99.90;;;;;;5033624;28;20504;-55
2023/09/01 08:13:08;;;;;;;2.70;1.10;;;19.50;99.90;;;;;;5032606;28;20374;-49
2023/09/01 08:15:35;;;;;;;1.80;1.00;;;19.50;99.90;;;;;;5033832;28;20455;-50
2023/09/01 08:18:02;;;;;;;2.22;1.00;;;19.40;99.90;;;;;;5033163;28;20128;-52
2023/09/01 08:20:29;;;;;;;1.50;0.82;;;19.40;99.90;;;;;;5033389;28;20049;-55
2023/09/01 08:22:56;;;;;;;1.58;0.80;;;19.40;99.90;;;;;;5033175;28;20370;-52
2023/09/01 08:25:23;;;;;;;1.52;0.80;;;19.50;99.90;;;;;;5033864;28;20049;-52
2023/09/01 08:27:50;;;;;;;2.85;0.75;;;19.60;99.90;;;;;;5032408;28;20041;-50
2023/09/01 08:30:16;;;;;;;1.95;0.90;;;19.70;99.90;;;;;;5033482;28;20041;-54
2023/09/01 08:32:43;;;;;;;2.90;1.17;;;19.80;99.90;;;;;;5032199;28;20061;-51
2023/09/01 08:35:11;;;;;;;2.60;1.27;;;19.90;99.90;;;;;;5025744;28;20125;-52
2023/09/01 08:37:38;;;;;;;3.30;1.50;;;19.90;99.90;;;;;;5025930;28;20045;-56
2023/09/01 08:40:05;;;;;;;2.95;1.92;;;19.90;99.90;;;;;;5027024;28;20104;-52
2023/09/01 08:42:32;;;;;;;4.43;2.03;;;19.90;99.90;;;;;;5025703;28;20033;-50
2023/09/01 08:44:59;;;;;;;3.55;2.00;;;19.90;99.90;;;;;;5033133;28;20058;-52
2023/09/01 08:47:26;;;;;;;3.80;2.17;;;20.00;99.90;;;;;;5032742;28;20045;-52
2023/09/01 08:49:53;;;;;;;3.20;2.40;;;20.00;99.90;;;;;;5012792;28;20069;-51
2023/09/01 08:52:20;;;;;;;7.50;2.80;;;20.10;99.90;;;;;;5032629;28;20047;-51
2023/09/01 08:54:47;;;;;;;6.72;2.47;;;20.10;99.90;;;;;;5033044;28;20041;-51
2023/09/01 08:57:15;;;;;;;2.70;2.40;;;20.10;99.90;;;;;;5031560;28;20045;-52
2023/09/01 08:59:41;;;;;;;4.30;2.30;;;20.20;99.90;;;;;;5032273;28;20135;-51
2023/09/01 09:02:08;;;;;;;3.63;2.40;;;20.30;99.90;;;;;;5032646;28;20172;-54
2023/09/01 09:04:35;;;;;;;5.15;2.50;;;20.40;99.90;;;;;;5032010;28;20048;-57
2023/09/01 09:07:02;;;;;;;4.00;2.70;;;20.40;99.90;;;;;;5032773;28;20046;-50
2023/09/01 09:09:29;;;;;;;4.78;2.90;;;20.50;99.90;;;;;;5032167;28;20073;-56
2023/09/01 09:11:56;;;;;;;3.78;2.38;;;20.50;99.90;;;;;;5032447;28;20140;-56
2023/09/01 09:14:23;;;;;;;4.55;2.55;;;20.50;99.90;;;;;;5031876;28;20386;-50
2023/09/01 09:16:50;;;;;;;4.20;2.47;;;20.60;99.90;;;;;;5032011;28;20045;-54
2023/09/01 09:19:19;;;;;;;2.70;2.13;;;20.60;99.90;;;;;;5032686;28;20472;-53
2023/09/01 09:21:46;;;;;;;3.63;2.63;;;20.70;99.90;;;;;;5032519;28;20038;-56
2023/09/01 09:24:13;;;;;;;3.70;2.03;;;20.80;99.90;;;;;;5032551;28;20540;-55
2023/09/01 09:26:49;;;;;;;2.72;2.10;;;20.80;99.90;;;;;;5031535;28;20045;-53
2023/09/01 09:29:16;;;;;;;4.10;2.10;;;20.90;99.90;;;;;;5032454;28;20069;-50
2023/09/01 09:31:44;;;;;;;2.75;1.90;;;21.10;99.90;;;;;;5032538;28;20049;-55
2023/09/01 09:34:12;;;;;;;2.40;1.70;;;21.20;99.90;;;;;;5031574;28;20034;-54
2023/09/01 09:36:39;;;;;;;3.42;1.42;;;21.30;99.90;;;;;;5031147;28;20041;-49
2023/09/01 09:39:06;;;;;;;3.00;1.00;;;21.40;99.90;;;;;;5032602;28;20049;-53
2023/09/01 09:41:33;;;;;;;2.60;1.00;;;21.50;99.90;;;;;;5035542;28;20454;-56
2023/09/01 09:43:59;;;;;;;2.00;1.30;;;21.50;99.90;;;;;;5036501;28;20069;-56
2023/09/01 09:46:26;;;;;;;1.50;1.00;;;21.60;99.90;;;;;;5035306;28;20068;-54
2023/09/01 09:48:56;;;;;;;1.90;1.23;;;21.70;99.90;;;;;;5036364;28;20045;-53
2023/09/01 09:51:23;;;;;;;1.60;1.10;;;21.80;99.90;;;;;;5036185;28;20448;-53
2023/09/01 09:53:49;;;;;;;1.70;1.02;;;22.00;99.90;;;;;;5034928;28;20054;-54
2023/09/01 09:56:18;;;;;;;2.53;1.00;;;22.10;99.90;;;;;;5035956;28;20041;-56
2023/09/01 09:58:44;;;;;;;1.80;1.00;;;22.20;99.90;;;;;;5035759;28;20037;-52
2023/09/01 10:01:11;;;;;;;1.50;1.05;;;22.30;99.90;;;;;;5035284;28;20113;-49
2023/09/01 10:03:38;;;;;;;1.55;1.10;;;22.30;99.90;;;;;;5035725;28;20049;-53
2023/09/01 10:06:05;;;;;;;2.03;1.20;;;22.40;99.90;;;;;;5034923;28;20049;-48
2023/09/01 10:08:32;;;;;;;1.70;0.90;;;22.50;99.90;;;;;;5035817;28;20116;-53
2023/09/01 10:10:59;;;;;;;2.00;1.10;;;22.50;99.90;;;;;;5035764;28;20129;-56
2023/09/01 10:13:26;;;;;;;2.33;1.00;;;22.70;99.90;;;;;;5035510;28;20069;-49
2023/09/01 10:15:52;;;;;;;1.45;0.93;;;22.70;99.90;;;;;;5035968;28;20068;-53
2023/09/01 10:18:19;;;;;;;2.97;1.20;;;22.90;99.90;;;;;;5035631;28;20044;-50
2023/09/01 10:20:46;;;;;;;1.70;0.82;;;23.10;99.90;;;;;;5035632;28;20033;-49
2023/09/01 10:23:13;;;;;;;2.33;1.15;;;23.20;99.90;;;;;;5035812;28;20121;-52
2023/09/01 10:25:40;;;;;;;2.00;1.10;;;23.20;99.90;;;;;;5035545;28;20072;-58
2023/09/01 10:28:07;;;;;;;3.33;2.05;;;23.10;99.90;;;;;;5035467;28;20055;-51
2023/09/01 10:30:34;;;;;;;2.60;2.00;;;22.80;99.90;;;;;;5035667;28;20045;-54
2023/09/01 10:33:00;;;;;;;2.80;2.00;;;22.40;99.90;;;;;;5035431;28;20045;-52
2023/09/01 10:35:27;;;;;;;4.88;2.30;;;22.10;99.90;;;;;;5035328;28;20045;-52
2023/09/01 10:37:54;;;;;;;3.63;2.30;;;21.90;99.90;;;;;;5035357;28;20448;-53
2023/09/01 10:40:21;;;;;;;3.30;2.25;;;21.80;99.90;;;;;;5035213;28;20041;-50
2023/09/01 10:42:49;;;;;;;3.40;2.13;;;21.90;99.90;;;;;;5034056;28;20432;-52
2023/09/01 10:45:16;;;;;;;2.78;1.70;;;22.00;99.90;;;;;;5035622;28;20208;-54
2023/09/01 10:47:45;;;;;;;3.58;2.15;;;22.10;99.90;;;;;;5035230;28;20043;-53
2023/09/01 10:50:12;;;;;;;2.78;1.90;;;22.10;99.90;;;;;;5034295;28;20038;-54
2023/09/01 10:52:41;;;;;;;3.63;2.00;;;22.10;99.90;;;;;;5033745;28;20124;-48
2023/09/01 10:55:09;;;;;;;3.10;2.20;;;22.20;99.90;;;;;;5034059;28;20103;-54
2023/09/01 10:57:37;;;;;;;2.72;2.20;;;22.10;99.90;;;;;;5030105;28;20488;-54
2023/09/01 11:00:05;;;;;;;3.55;2.63;;;22.10;99.90;;;;;;5034157;28;20054;-50
2023/09/01 11:02:32;;;;;;;2.97;2.30;;;21.90;99.90;;;;;;5032597;28;20480;-52
2023/09/01 11:04:59;;;;;;;5.88;2.28;;;21.80;99.90;;;;;;5034073;28;20054;-54
2023/09/01 11:07:25;;;;;;;4.85;2.30;;;21.90;99.90;;;;;;5033421;28;20057;-56
2023/09/01 11:09:52;;;;;;;3.67;2.03;;;21.80;99.90;;;;;;5034738;28;20116;-50
2023/09/01 11:12:19;;;;;;;3.00;2.20;;;21.70;99.90;;;;;;5034974;28;20415;-54
2023/09/01 11:14:46;;;;;;;3.65;2.00;;;21.80;99.90;;;;;;5034890;28;20084;-52
2023/09/01 11:17:13;;;;;;;2.33;1.60;;;21.80;99.90;;;;;;5033195;28;20033;-50
2023/09/01 11:19:39;;;;;;;2.42;1.60;;;21.90;99.90;;;;;;5034629;28;20040;-51
2023/09/01 11:22:06;;;;;;;2.60;1.60;;;21.80;99.90;;;;;;5034398;28;20041;-50
2023/09/01 11:24:33;;;;;;;2.30;1.50;;;21.70;99.90;;;;;;5034760;28;20404;-48
2023/09/01 11:27:00;;;;;;;2.55;1.20;;;21.60;99.90;;;;;;5034567;28;20041;-52
2023/09/01 11:29:27;;;;;;;2.13;1.20;;;21.50;99.90;;;;;;5034423;28;20050;-49
2023/09/01 11:31:54;;;;;;;2.83;1.20;;;21.60;99.90;;;;;;5033111;28;20140;-50
2023/09/01 11:34:21;;;;;;;2.08;1.17;;;21.60;99.90;;;;;;5034515;28;20125;-52
2023/09/01 11:36:49;;;;;;;2.08;1.00;;;21.60;99.90;;;;;;5034448;28;20057;-55
2023/09/01 11:39:15;;;;;;;3.30;1.20;;;21.80;99.90;;;;;;5033493;28;20404;-53
2023/09/01 11:41:42;;;;;;;3.33;1.00;;;21.80;99.90;;;;;;5034414;28;20046;-52
2023/09/01 11:44:09;;;;;;;3.08;1.20;;;21.80;99.90;;;;;;5034272;28;20135;-53
2023/09/01 11:46:36;;;;;;;2.70;1.33;;;21.70;99.90;;;;;;5033427;28;20045;-50
2023/09/01 11:49:03;;;;;;;3.22;1.48;;;21.70;99.90;;;;;;5032907;28;20447;-48
2023/09/01 11:51:30;;;;;;;2.97;1.17;;;21.60;99.90;;;;;;5033397;28;20049;-52
2023/09/01 11:53:57;;;;;;;3.05;1.05;;;21.60;99.90;;;;;;5033612;28;20054;-55
2023/09/01 11:56:23;;;;;;;1.73;1.20;;;21.70;99.90;;;;;;5033913;28;20037;-49
2023/09/01 11:58:51;;;;;;;2.08;1.02;;;21.80;99.90;;;;;;5033898;28;20042;-55
2023/09/01 12:01:18;;;;;;;3.10;1.33;;;22.00;99.90;;;;;;5033124;28;20066;-55
2023/09/01 12:03:45;;;;;;;1.92;1.00;;;22.20;99.90;;;;;;5033681;28;20053;-53
2023/09/01 12:06:12;;;;;;;2.42;0.88;;;22.40;99.90;;;;;;5033137;28;20148;-52
2023/09/01 12:08:40;;;;;;;2.38;1.20;;;22.50;99.90;;;;;;5033790;28;20455;-51
2023/09/01 12:11:06;;;;;;;3.72;1.70;;;22.60;99.90;;;;;;5033927;28;20041;-49
2023/09/01 12:13:33;;;;;;;2.45;1.80;;;22.70;99.90;;;;;;5033116;28;20037;-52
2023/09/01 12:16:00;;;;;;;2.22;1.52;;;22.70;99.90;;;;;;5033773;28;20049;-52
2023/09/01 12:18:27;;;;;;;2.25;1.65;;;22.60;99.90;;;;;;5032740;28;20079;-53
2023/09/01 12:20:54;;;;;;;3.22;1.65;;;22.60;99.90;;;;;;5033688;28;20041;-54
2023/09/01 12:23:21;;;;;;;3.50;1.58;;;22.60;99.90;;;;;;5033851;28;20037;-53
2023/09/01 12:25:48;;;;;;;3.00;1.60;;;22.60;99.90;;;;;;5033426;28;20052;-52
2023/09/01 12:28:15;;;;;;;2.30;1.50;;;22.80;99.90;;;;;;5033428;28;20045;-46
2023/09/01 12:30:42;;;;;;;2.33;1.50;;;22.90;99.90;;;;;;5033347;28;20475;-49
2023/09/01 12:33:08;;;;;;;2.30;1.50;;;23.00;99.90;;;;;;5033482;28;20041;-51
2023/09/01 12:35:35;;;;;;;2.33;1.40;;;23.10;99.90;;;;;;5032434;28;20045;-51
2023/09/01 12:38:02;;;;;;;5.40;1.50;;;23.10;99.90;;;;;;5033308;28;20117;-49
2023/09/01 12:40:29;;;;;;;2.00;1.10;;;23.10;99.90;;;;;;5033462;28;20038;-48
2023/09/01 12:42:56;;;;;;;3.33;1.45;;;23.20;99.90;;;;;;5032949;28;20485;-49
2023/09/01 12:45:23;;;;;;;3.13;1.05;;;23.10;99.90;;;;;;5033148;28;20392;-52
2023/09/01 12:47:50;;;;;;;2.00;1.35;;;23.30;99.90;;;;;;5033097;28;20103;-50